createdAt,value
2019-03-12T00:03:35.436Z,5.23
2019-03-12T00:06:09.784Z,4.83
2019-03-12T00:08:44.357Z,4.10
2019-03-12T00:14:11.095Z,6.03
2019-03-12T00:16:45.498Z,3.03
2019-03-12T00:19:15.967Z,4.83
2019-03-12T00:21:48.564Z,5.27
2019-03-12T00:24:18.894Z,3.83
2019-03-12T00:26:53.568Z,3.40
2019-03-12T00:29:24.006Z,4.10
2019-03-12T00:31:54.311Z,7.83
2019-03-12T00:34:27.221Z,3.50
2019-03-12T00:36:59.390Z,6.37
2019-03-12T00:39:33.462Z,4.50
2019-03-12T00:42:06.898Z,3.10
2019-03-12T00:44:39.504Z,5.77
2019-03-12T00:47:09.842Z,3.23
2019-03-12T00:52:29.991Z,3.57
2019-03-12T00:55:01.688Z,2.90
2019-03-12T00:57:31.989Z,3.33
2019-03-12T01:00:15.416Z,4.60
2019-03-12T01:02:47.103Z,3.80
2019-03-12T01:05:20.717Z,2.87
2019-03-12T01:07:52.619Z,2.60
2019-03-12T01:10:31.530Z,3.57
2019-03-12T01:13:09.985Z,7.47
2019-03-12T01:15:41.788Z,3.17
2019-03-12T01:18:18.575Z,2.43
2019-03-12T01:21:03.102Z,1.63
2019-03-12T01:23:34.275Z,2.70
2019-03-12T01:26:10.153Z,3.90
2019-03-12T01:28:42.455Z,2.90
2019-03-12T01:34:03.195Z,2.70
2019-03-12T01:36:38.019Z,3.93
2019-03-12T01:39:08.346Z,4.00
2019-03-12T01:41:40.325Z,3.13
2019-03-12T01:44:17.893Z,1.80
2019-03-12T01:46:52.360Z,2.73
2019-03-12T01:49:28.465Z,2.07
2019-03-12T01:52:01.460Z,4.40
2019-03-12T01:54:31.814Z,1.93
2019-03-12T01:57:03.111Z,3.27
2019-03-12T01:59:35.616Z,1.90
2019-03-12T02:02:10.047Z,2.40
2019-03-12T02:04:40.236Z,6.67
2019-03-12T02:07:14.531Z,4.07
2019-03-12T02:09:50.079Z,3.10
2019-03-12T02:12:24.669Z,3.47
2019-03-12T02:15:00.514Z,2.63
2019-03-12T02:17:34.433Z,3.80
2019-03-12T02:20:06.887Z,3.03
2019-03-12T02:22:48.620Z,3.20
2019-03-12T02:25:26.590Z,2.70
2019-03-12T02:30:47.781Z,3.50
2019-03-12T02:33:19.669Z,3.77
2019-03-12T02:35:51.534Z,2.53
2019-03-12T02:38:21.837Z,3.53
2019-03-12T02:40:53.876Z,3.37
2019-03-12T02:43:25.723Z,3.93
2019-03-12T02:48:46.804Z,8.90
2019-03-12T02:51:18.767Z,5.80
2019-03-12T02:53:52.905Z,7.43
2019-03-12T02:56:27.571Z,7.50
2019-03-12T02:59:01.329Z,6.67
2019-03-12T03:01:32.568Z,4.67
2019-03-12T03:04:02.901Z,6.50
2019-03-12T03:06:50.947Z,3.23
2019-03-12T03:09:25.079Z,3.07
2019-03-12T03:11:55.373Z,1.60
2019-03-12T03:14:29.746Z,2.93
2019-03-12T03:17:00.055Z,3.37
2019-03-12T03:19:33.566Z,3.23
2019-03-12T03:22:03.865Z,3.97
2019-03-12T03:24:35.470Z,3.27
2019-03-12T03:27:05.763Z,1.47
2019-03-12T03:32:25.359Z,2.80
2019-03-12T03:34:55.675Z,3.77
2019-03-12T03:37:26.033Z,3.10
2019-03-12T03:39:56.294Z,3.10
2019-03-12T03:42:26.579Z,4.07
2019-03-12T03:44:56.960Z,7.70
2019-03-12T03:47:27.266Z,3.80
2019-03-12T03:49:57.564Z,3.53
2019-03-12T03:52:27.889Z,3.00
2019-03-12T03:54:58.201Z,4.07
2019-03-12T03:57:28.485Z,4.33
2019-03-12T03:59:58.788Z,3.27
2019-03-12T04:02:30.040Z,4.40
2019-03-12T04:05:00.604Z,4.43
2019-03-12T04:07:31.261Z,4.03
2019-03-12T04:10:02.457Z,4.20
2019-03-12T04:15:22.025Z,5.47
2019-03-12T04:17:52.331Z,5.63
2019-03-12T04:20:22.726Z,8.00
2019-03-12T04:22:53.019Z,13.70
2019-03-12T04:25:23.452Z,7.00
2019-03-12T04:27:53.753Z,12.67
2019-03-12T04:30:26.425Z,9.57
2019-03-12T04:32:58.100Z,12.53
2019-03-12T04:35:32.183Z,8.97
2019-03-12T04:38:02.487Z,12.63
2019-03-12T04:40:32.938Z,8.90
2019-03-12T04:43:03.952Z,7.57
2019-03-12T04:45:34.287Z,5.93
2019-03-12T04:48:04.581Z,7.33
2019-03-12T04:50:36.480Z,16.70
2019-03-12T04:53:07.063Z,21.53
2019-03-12T04:55:37.503Z,17.93
2019-03-12T04:58:23.826Z,10.30
2019-03-12T05:00:57.492Z,27.17
2019-03-12T05:03:28.784Z,77.30
2019-03-12T05:06:01.250Z,126.30
2019-03-12T05:08:31.783Z,127.70
2019-03-12T05:11:06.784Z,95.97
2019-03-12T05:13:41.569Z,57.40
2019-03-12T05:16:17.626Z,36.47
2019-03-12T05:18:59.620Z,33.27
2019-03-12T05:24:35.677Z,33.33
2019-03-12T05:30:01.929Z,28.37
2019-03-12T05:32:38.862Z,20.53
2019-03-12T05:38:05.191Z,31.40
2019-03-12T05:40:36.739Z,29.13
2019-03-12T05:43:09.024Z,28.03
2019-03-12T05:48:31.571Z,12.60
2019-03-12T05:51:05.977Z,14.00
2019-03-12T05:59:38.572Z,9.80
2019-03-12T06:02:10.475Z,11.13
2019-03-12T06:04:44.066Z,11.03
2019-03-12T06:07:16.047Z,11.80
2019-03-12T06:09:48.120Z,9.63
2019-03-12T06:12:19.327Z,11.93
2019-03-12T06:14:52.531Z,8.43
2019-03-12T06:17:27.424Z,7.70
2019-03-12T06:22:47.272Z,10.40
2019-03-12T06:31:11.162Z,19.07
2019-03-12T06:36:44.577Z,24.70
2019-03-12T06:39:22.540Z,16.30
2019-03-12T06:45:06.196Z,20.77
2019-03-12T06:47:46.651Z,29.40
2019-03-12T06:53:41.130Z,16.73
2019-03-12T06:56:37.267Z,27.07
2019-03-12T07:02:17.755Z,8.90
2019-03-12T07:07:46.795Z,10.10
2019-03-12T07:10:50.843Z,9.17
2019-03-12T07:13:24.300Z,13.20
2019-03-12T07:16:06.641Z,14.93
2019-03-12T07:21:35.611Z,19.67
2019-03-12T07:24:13.175Z,14.77
2019-03-12T07:26:53.582Z,15.13
2019-03-12T07:32:37.573Z,19.30
2019-03-12T07:35:09.533Z,19.27
2019-03-12T07:38:01.104Z,15.50
2019-03-12T07:40:50.036Z,12.40
2019-03-12T07:43:27.875Z,19.53
2019-03-12T07:48:59.449Z,12.33
2019-03-12T07:54:55.359Z,12.97
2019-03-12T07:57:37.474Z,11.13
2019-03-12T08:00:20.555Z,11.47
2019-03-12T08:02:52.937Z,14.30
2019-03-12T08:05:30.377Z,9.47
2019-03-12T08:08:05.041Z,10.37
2019-03-12T08:13:53.696Z,12.53
2019-03-12T08:19:16.478Z,8.87
2019-03-12T08:21:50.047Z,15.60
2019-03-12T08:24:34.307Z,13.53
2019-03-12T08:27:08.987Z,13.00
2019-03-12T08:32:46.628Z,17.77
2019-03-12T08:35:19.628Z,20.03
2019-03-12T08:41:15.623Z,22.00
2019-03-12T08:50:22.825Z,15.83
2019-03-12T08:53:05.192Z,16.00
2019-03-12T08:58:45.348Z,23.50
2019-03-12T09:07:12.290Z,14.90
2019-03-12T09:10:15.599Z,21.83
2019-03-12T09:16:00.772Z,27.33
2019-03-12T09:18:50.552Z,27.63
2019-03-12T09:27:37.672Z,18.83
2019-03-12T09:30:16.728Z,15.20
2019-03-12T09:32:54.900Z,11.23
2019-03-12T09:38:26.117Z,10.40
2019-03-12T09:41:00.842Z,8.63
2019-03-12T09:46:52.113Z,12.90
2019-03-12T09:49:36.353Z,14.07
2019-03-12T09:52:14.374Z,21.67
2019-03-12T09:55:04.893Z,16.53
2019-03-12T10:07:01.377Z,11.37
2019-03-12T10:09:39.547Z,15.90
2019-03-12T10:12:30.136Z,17.10
2019-03-12T10:18:03.084Z,10.07
2019-03-12T10:20:55.647Z,9.27
2019-03-12T10:23:37.743Z,7.60
2019-03-12T10:29:06.556Z,5.83
2019-03-12T10:32:00.576Z,9.60
2019-03-12T10:34:35.366Z,9.03
2019-03-12T10:37:16.316Z,12.00
2019-03-12T10:39:57.844Z,6.20
2019-03-12T10:42:41.934Z,3.10
2019-03-12T10:45:13.996Z,11.40
2019-03-12T10:47:57.558Z,8.20
2019-03-12T10:50:31.025Z,10.27
2019-03-12T10:56:02.721Z,6.13
2019-03-12T10:58:39.025Z,8.60
2019-03-12T11:01:10.098Z,6.73
2019-03-12T11:03:40.427Z,7.23
2019-03-12T11:09:05.760Z,2.80
2019-03-12T11:11:36.451Z,7.20
2019-03-12T11:14:08.311Z,5.93
2019-03-12T11:16:38.648Z,5.47
2019-03-12T11:19:12.601Z,6.77
2019-03-12T11:24:33.505Z,5.77
2019-03-12T11:27:03.831Z,8.90
2019-03-12T11:32:33.429Z,10.67
2019-03-12T11:35:06.937Z,12.27
2019-03-12T11:37:55.466Z,15.90
2019-03-12T11:43:20.066Z,11.40
2019-03-12T11:45:50.493Z,9.87
2019-03-12T11:48:20.809Z,7.70
2019-03-12T11:53:40.499Z,4.47
2019-03-12T11:56:10.879Z,7.77
2019-03-12T11:58:42.740Z,6.03
2019-03-12T12:01:13.104Z,6.67
2019-03-12T12:03:43.329Z,4.60
2019-03-12T12:06:13.675Z,7.50
2019-03-12T12:08:44.349Z,10.50
2019-03-12T12:11:16.349Z,8.00
2019-03-12T12:16:38.716Z,4.97
2019-03-12T12:19:17.220Z,7.53
2019-03-12T12:21:47.520Z,8.37
2019-03-12T12:27:11.065Z,5.77
2019-03-12T12:29:46.059Z,9.07
2019-03-12T12:32:16.399Z,5.50
2019-03-12T12:37:36.317Z,5.73
2019-03-12T12:40:10.784Z,9.50
2019-03-12T12:45:39.018Z,4.20
2019-03-12T12:48:12.333Z,12.53
2019-03-12T12:50:46.212Z,6.60
2019-03-12T12:53:16.470Z,5.97
2019-03-12T12:55:49.006Z,7.43
2019-03-12T12:58:19.344Z,6.17
2019-03-12T13:00:51.298Z,11.60
2019-03-12T13:03:23.298Z,7.67
2019-03-12T13:05:55.746Z,11.20
2019-03-12T13:08:28.505Z,6.23
2019-03-12T13:13:51.095Z,4.50
2019-03-12T13:16:25.346Z,3.60
2019-03-12T13:18:55.127Z,6.03
2019-03-12T13:21:25.469Z,7.17
2019-03-12T13:23:59.818Z,7.27
2019-03-12T13:26:44.614Z,5.33
2019-03-12T13:29:20.881Z,12.97
2019-03-12T13:31:54.045Z,11.70
2019-03-12T13:34:40.713Z,10.33
2019-03-12T13:37:19.760Z,12.13
2019-03-12T13:39:55.218Z,5.60
2019-03-12T13:42:35.468Z,10.03
2019-03-12T13:50:55.182Z,5.77
2019-03-12T13:53:34.193Z,7.43
2019-03-12T14:04:36.469Z,10.07
2019-03-12T14:07:10.703Z,8.73
2019-03-12T14:09:48.710Z,9.73
2019-03-12T14:12:37.469Z,12.00
2019-03-12T14:18:03.785Z,10.63
2019-03-12T14:21:02.335Z,10.67
2019-03-12T14:32:25.314Z,8.83
2019-03-12T14:34:59.451Z,10.50
2019-03-12T14:43:15.008Z,8.87
2019-03-12T14:45:50.566Z,14.67
2019-03-12T14:48:59.225Z,11.43
2019-03-12T14:57:19.141Z,13.23
2019-03-12T14:59:57.261Z,14.37
2019-03-12T15:02:29.009Z,15.67
2019-03-12T15:08:01.018Z,11.37
2019-03-12T15:10:49.673Z,11.30
2019-03-12T15:16:14.539Z,16.00
2019-03-12T15:18:52.058Z,8.57
2019-03-12T15:29:56.846Z,13.63
2019-03-12T15:35:24.936Z,12.57
2019-03-12T15:43:54.296Z,17.90
2019-03-12T15:52:39.077Z,21.40
2019-03-12T15:55:16.386Z,17.07
2019-03-12T16:00:42.644Z,18.83
2019-03-12T16:09:11.904Z,23.87
2019-03-12T16:11:48.089Z,36.73
2019-03-12T16:14:19.572Z,23.83
2019-03-12T16:16:50.008Z,25.77
2019-03-12T16:19:22.642Z,27.67
2019-03-12T16:21:53.882Z,26.20
2019-03-12T16:24:24.276Z,29.93
2019-03-12T16:26:58.434Z,25.97
2019-03-12T16:29:30.545Z,27.03
2019-03-12T16:32:06.462Z,33.80
2019-03-12T16:34:38.107Z,23.93
2019-03-12T16:37:17.096Z,29.80
2019-03-12T16:39:50.486Z,25.63
2019-03-12T16:42:34.563Z,28.00
2019-03-12T16:44:58.750Z,28.77
2019-03-12T16:47:29.210Z,25.73
2019-03-12T16:50:07.092Z,34.27
2019-03-12T16:52:39.050Z,35.63
2019-03-12T16:55:18.657Z,30.03
2019-03-12T16:57:53.944Z,30.20
2019-03-12T17:00:25.715Z,33.97
2019-03-12T17:02:56.711Z,33.43
2019-03-12T17:05:28.344Z,31.10
2019-03-12T17:08:03.533Z,38.07
2019-03-12T17:10:37.333Z,39.33
2019-03-12T17:13:09.340Z,37.63
2019-03-12T17:15:40.888Z,34.03
2019-03-12T17:18:14.512Z,36.83
2019-03-12T17:20:45.593Z,34.10
2019-03-12T17:23:19.474Z,35.13
2019-03-12T17:25:49.930Z,30.53
2019-03-12T17:28:23.168Z,35.87
2019-03-12T17:30:57.918Z,33.40
2019-03-12T17:33:30.032Z,30.43
2019-03-12T17:36:06.287Z,28.83
2019-03-12T17:38:46.533Z,41.10
2019-03-12T17:41:09.189Z,26.47
2019-03-12T17:43:42.336Z,27.33
2019-03-12T17:46:16.813Z,28.63
2019-03-12T17:48:47.277Z,26.13
2019-03-12T17:51:21.777Z,38.10
2019-03-12T17:53:53.254Z,26.30
2019-03-12T17:56:27.902Z,29.50
2019-03-12T17:59:08.594Z,26.37
2019-03-12T18:01:42.134Z,28.33
2019-03-12T18:04:12.569Z,26.23
2019-03-12T18:06:43.936Z,32.63
2019-03-12T18:09:16.059Z,29.23
2019-03-12T18:11:48.034Z,26.10
2019-03-12T18:14:19.280Z,26.53
2019-03-12T18:16:51.880Z,28.90
2019-03-12T18:19:26.522Z,26.53
2019-03-12T18:21:59.319Z,27.93
2019-03-12T18:24:35.678Z,29.80
2019-03-12T18:27:06.796Z,24.60
2019-03-12T18:29:42.418Z,25.63
2019-03-12T18:32:12.805Z,27.17
2019-03-12T18:34:45.763Z,29.83
2019-03-12T18:37:24.802Z,33.43
2019-03-12T18:40:01.442Z,37.80
2019-03-12T18:42:35.666Z,45.57
2019-03-12T18:45:09.209Z,50.37
2019-03-12T18:47:41.781Z,64.63
2019-03-12T18:50:15.891Z,80.60
2019-03-12T18:52:49.516Z,68.67
2019-03-12T18:55:37.698Z,68.37
2019-03-12T18:58:08.987Z,76.77
2019-03-12T19:00:43.362Z,83.70
2019-03-12T19:03:13.963Z,71.43
2019-03-12T19:05:53.286Z,52.87
2019-03-12T19:08:25.721Z,57.23
2019-03-12T19:11:01.413Z,48.73
2019-03-12T19:13:33.733Z,52.17
2019-03-12T19:16:10.284Z,45.53
2019-03-12T19:18:43.205Z,44.87
2019-03-12T19:21:14.056Z,50.57
2019-03-12T19:23:49.379Z,52.40
2019-03-12T19:26:22.071Z,53.83
2019-03-12T19:28:52.831Z,50.43
2019-03-12T19:31:28.221Z,56.03
2019-03-12T19:34:03.401Z,48.90
2019-03-12T19:36:38.280Z,41.20
2019-03-12T19:39:10.781Z,53.87
2019-03-12T19:41:42.994Z,60.63
2019-03-12T19:44:19.609Z,58.10
2019-03-12T19:46:51.416Z,53.30
2019-03-12T19:49:25.318Z,56.20
2019-03-12T19:51:57.824Z,51.10
2019-03-12T19:54:33.765Z,58.50
2019-03-12T19:57:04.735Z,71.77
2019-03-12T19:59:35.547Z,70.47
2019-03-12T20:02:15.923Z,57.13
2019-03-12T20:04:47.104Z,82.47
2019-03-12T20:07:14.292Z,71.47
2019-03-12T20:09:47.999Z,77.43
2019-03-12T20:12:37.016Z,74.97
2019-03-12T20:15:30.092Z,73.87
2019-03-12T20:18:29.133Z,72.03
2019-03-12T20:21:37.764Z,68.90
2019-03-12T20:24:44.442Z,66.27
2019-03-12T20:27:34.509Z,72.43
2019-03-12T20:30:35.238Z,76.80
2019-03-12T20:33:14.051Z,62.73
2019-03-12T20:36:11.939Z,63.93
2019-03-12T20:39:20.557Z,65.67
2019-03-12T20:42:10.850Z,60.27
2019-03-12T20:45:00.657Z,78.00
2019-03-12T20:47:51.631Z,55.57
2019-03-12T20:50:49.357Z,66.73
2019-03-12T20:53:57.353Z,67.53
2019-03-12T20:57:02.447Z,64.27
2019-03-12T21:00:10.395Z,77.50
2019-03-12T21:03:03.116Z,83.30
2019-03-12T21:06:00.414Z,75.67
2019-03-12T21:08:37.023Z,78.50
2019-03-12T21:11:27.038Z,70.97
2019-03-12T21:14:17.218Z,71.77
2019-03-12T21:17:07.343Z,76.80
2019-03-12T21:20:16.269Z,92.73
2019-03-12T21:22:58.781Z,100.37
2019-03-12T21:25:54.559Z,109.60
2019-03-12T21:28:39.906Z,108.17
2019-03-12T21:31:10.306Z,85.37
2019-03-12T21:33:40.706Z,89.57
2019-03-12T21:36:11.079Z,78.47
2019-03-12T21:38:41.483Z,66.43
2019-03-12T21:41:11.872Z,63.97
2019-03-12T21:43:42.281Z,57.33
2019-03-12T21:46:12.664Z,53.47
2019-03-12T21:48:43.029Z,44.83
2019-03-12T21:51:13.409Z,49.07
2019-03-12T21:53:43.820Z,50.00
2019-03-12T21:56:14.206Z,55.80
2019-03-12T21:58:44.580Z,57.97
2019-03-12T22:01:15.043Z,54.00
2019-03-12T22:03:45.404Z,59.03
2019-03-12T22:06:16.234Z,59.70
2019-03-12T22:08:46.599Z,55.63
2019-03-12T22:11:16.964Z,49.40
2019-03-12T22:13:47.372Z,48.20
2019-03-12T22:16:25.780Z,48.83
2019-03-12T22:18:56.136Z,55.67
2019-03-12T22:25:14.292Z,49.37
2019-03-12T22:27:50.424Z,48.67
2019-03-12T22:33:57.947Z,63.80
2019-03-12T22:36:28.337Z,64.00
2019-03-12T22:38:58.718Z,69.43
2019-03-12T22:41:29.149Z,70.40
2019-03-12T22:44:01.097Z,68.43
2019-03-12T22:46:31.531Z,90.53
2019-03-12T22:49:01.961Z,84.00
2019-03-12T22:51:32.408Z,101.70
2019-03-12T22:54:02.826Z,93.97
2019-03-12T22:56:33.193Z,75.20
2019-03-12T22:59:03.584Z,63.43
2019-03-12T23:01:33.994Z,63.10
2019-03-12T23:04:04.355Z,57.03
2019-03-12T23:06:34.816Z,50.30
2019-03-12T23:09:05.379Z,45.27
2019-03-12T23:11:35.759Z,39.53
2019-03-12T23:14:06.139Z,40.10
2019-03-12T23:16:36.528Z,35.57
2019-03-12T23:19:06.902Z,33.33
2019-03-12T23:21:37.282Z,36.10
2019-03-12T23:24:07.646Z,35.43
2019-03-12T23:26:38.028Z,38.80
2019-03-12T23:29:08.399Z,37.33
2019-03-12T23:31:38.790Z,35.53
2019-03-12T23:34:09.263Z,38.67
2019-03-12T23:36:39.638Z,31.93
2019-03-12T23:39:10.047Z,25.40
2019-03-12T23:41:40.405Z,28.23
2019-03-12T23:44:10.797Z,31.90
2019-03-12T23:46:41.176Z,26.97
2019-03-12T23:49:11.551Z,33.27
2019-03-12T23:51:41.921Z,28.53
2019-03-12T23:54:12.310Z,32.53
2019-03-12T23:56:42.688Z,42.87
2019-03-12T23:59:13.045Z,47.83
